Lechfeld, Germany

1:32 AM CET on March 06, 2015 (GMT +0100)
Lechfeld | Change Station
CLOSE
Current Station
Personal Weather Station
Location: Klosterlechfeld, BAYERN
Elevation: 1850 ft
Nearby Weather Stations

Elev 1850 ft 48.15 °N, 10.83 °E | Updated 32 minutes ago

Mostly Cloudy
Mostly Cloudy
31.3 °F
Feels Like 31 °F
N
0.0
Wind Variable Wind from WNW
Gusts 0.0 mph

Today
High -- | Low -- °F
--% Chance of Precip.
Yesterday
High -- | Low -- °F
Precip. -- in
6:48 AM 6:07 PM
Full, 100% visible
Pressure 30.57 in
Visibility 6.2 miles
Clouds Mostly Cloudy 5000 ft
Windchill 31 °F
Dew Point 28 °F
Humidity 87%
Rainfall in
Snow Depth Not available.
UV 0 out of 12
Pollen Not available.
Air Quality Not available.
Flu Activity Not available.
METAR ETSL 060020Z 21003KT 9999 BKN050 M01/M03 Q1035 BLU

More Conditions Fewer Conditions

Pressure 30.57 in
Visibility 6.2 miles
Clouds Mostly Cloudy 5000 ft
Windchill 31 °F
Dew Point 28 °F
Humidity 87%
Rainfall in
Snow Depth Not available.
UV 0 out of 12
Pollen Not available.
Air Quality Not available.
Flu Activity Not available.
METAR ETSL 060020Z 21003KT 9999 BKN050 M01/M03 Q1035 BLU

More Conditions Fewer Conditions

10-Day Weather Forecast

Almanac

Astronomy

Mar. 06, 2015 Rise Set
Actual Time
Civil Twilight
Nautical Twilight
Astronomical Twilight
Moon
Length of Visible Light
Length of Day
Tomorrow will be .
, % of the Moon is Illuminated

Today's Extremes

Country Highs Country Lows

Community

WunderPhotos

Upload Photos

1,803,071 photos uploaded!

WunderBlogs® & News

Nearby

Air Quality

  Air Quality AQ Index Pollutant
Not available.

Snow Depth

Station Depth Elevation

Earthquake Activity

City Distance Mag. Time & Date
Minimum magnitude displayed is 2.5.

Coastal Water Temperatures

Place Temperature

Nearby Weather Stations